createdAt,value
2023-05-08T00:01:06.391Z,23.50
2023-05-08T00:03:33.839Z,23.50
2023-05-08T00:06:04.928Z,23.50
2023-05-08T00:08:32.000Z,23.50
2023-05-08T00:10:59.088Z,23.50
2023-05-08T00:13:26.291Z,23.50
2023-05-08T00:15:53.405Z,23.50
2023-05-08T00:18:20.479Z,23.40
2023-05-08T00:20:47.526Z,23.50
2023-05-08T00:23:14.592Z,23.40
2023-05-08T00:25:41.718Z,23.50
2023-05-08T00:28:08.799Z,23.40
2023-05-08T00:30:35.934Z,23.40
2023-05-08T00:33:03.178Z,23.40
2023-05-08T00:35:30.369Z,23.40
2023-05-08T00:37:57.398Z,23.40
2023-05-08T00:40:24.569Z,23.40
2023-05-08T00:42:51.980Z,23.40
2023-05-08T00:45:19.144Z,23.40
2023-05-08T00:47:46.322Z,23.40
2023-05-08T00:50:14.452Z,23.40
2023-05-08T00:52:42.558Z,23.40
2023-05-08T00:55:10.154Z,23.40
2023-05-08T00:57:37.982Z,23.40
2023-05-08T01:00:06.074Z,23.40
2023-05-08T01:02:34.114Z,23.40
2023-05-08T01:05:01.281Z,23.40
2023-05-08T01:07:28.649Z,23.40
2023-05-08T01:09:55.969Z,23.40
2023-05-08T01:12:56.857Z,23.40
2023-05-08T01:15:54.820Z,23.40
2023-05-08T01:18:36.519Z,23.40
2023-05-08T01:21:24.975Z,23.30
2023-05-08T01:24:20.219Z,23.30
2023-05-08T01:27:19.148Z,23.40
2023-05-08T01:30:26.145Z,23.30
2023-05-08T01:33:01.095Z,23.30
2023-05-08T01:35:33.041Z,23.30
2023-05-08T01:38:07.826Z,23.30
2023-05-08T01:40:45.159Z,23.30
2023-05-08T01:43:30.168Z,23.30
2023-05-08T01:45:59.582Z,23.30
2023-05-08T01:48:43.308Z,23.30
2023-05-08T01:51:18.237Z,23.30
2023-05-08T01:53:51.328Z,23.30
2023-05-08T01:56:23.067Z,23.30
2023-05-08T01:58:53.198Z,23.30
2023-05-08T02:01:24.485Z,23.30
2023-05-08T02:03:54.055Z,23.30
2023-05-08T02:06:22.889Z,23.20
2023-05-08T02:08:51.636Z,23.20
2023-05-08T02:11:19.879Z,23.20
2023-05-08T02:13:49.121Z,23.20
2023-05-08T02:16:18.047Z,23.20
2023-05-08T02:18:53.155Z,23.20
2023-05-08T02:21:22.358Z,23.20
2023-05-08T02:23:50.816Z,23.20
2023-05-08T02:26:19.050Z,23.20
2023-05-08T02:28:47.177Z,23.20
2023-05-08T02:31:15.404Z,23.20
2023-05-08T02:33:44.242Z,23.10
2023-05-08T02:36:14.040Z,23.10
2023-05-08T02:38:44.321Z,23.10
2023-05-08T02:41:12.488Z,23.10
2023-05-08T02:43:39.970Z,23.10
2023-05-08T02:46:17.168Z,23.10
2023-05-08T02:49:09.293Z,23.20
2023-05-08T02:51:57.716Z,23.20
2023-05-08T02:54:43.550Z,23.20
2023-05-08T02:57:43.284Z,23.20
2023-05-08T03:00:22.649Z,23.20
2023-05-08T03:03:21.521Z,23.20
2023-05-08T03:05:53.810Z,23.20
2023-05-08T03:08:31.051Z,23.10
2023-05-08T03:11:02.936Z,23.10
2023-05-08T03:13:34.665Z,23.10
2023-05-08T03:16:04.658Z,23.10
2023-05-08T03:18:36.378Z,23.10
2023-05-08T03:21:05.810Z,23.10
2023-05-08T03:23:35.477Z,23.10
2023-05-08T03:26:04.859Z,23.10
2023-05-08T03:28:33.032Z,23.10
2023-05-08T03:31:03.006Z,23.10
2023-05-08T03:33:32.520Z,23.10
2023-05-08T03:36:00.200Z,23.10
2023-05-08T03:38:27.611Z,23.10
2023-05-08T03:40:54.765Z,23.10
2023-05-08T03:43:22.425Z,23.10
2023-05-08T03:45:50.719Z,23.00
2023-05-08T03:48:19.430Z,23.10
2023-05-08T03:50:47.553Z,23.00
2023-05-08T03:53:14.980Z,23.00
2023-05-08T03:55:42.136Z,23.00
2023-05-08T03:58:24.666Z,23.00
2023-05-08T04:01:20.553Z,23.00
2023-05-08T04:04:03.145Z,23.00
2023-05-08T04:06:51.352Z,23.00
2023-05-08T04:09:31.525Z,23.10
2023-05-08T04:12:05.626Z,23.00
2023-05-08T04:14:43.380Z,23.10
2023-05-08T04:17:12.316Z,23.10
2023-05-08T04:19:45.360Z,23.10
2023-05-08T04:22:13.151Z,23.10
2023-05-08T04:24:44.806Z,23.10
2023-05-08T04:27:13.463Z,23.10
2023-05-08T04:29:41.021Z,23.10
2023-05-08T04:32:09.421Z,23.10
2023-05-08T04:34:37.414Z,23.10
2023-05-08T04:37:07.676Z,23.10
2023-05-08T04:39:34.574Z,23.10
2023-05-08T04:42:06.160Z,23.10
2023-05-08T04:44:33.230Z,23.10
2023-05-08T04:47:00.309Z,23.10
2023-05-08T04:49:27.471Z,23.10
2023-05-08T04:51:54.547Z,23.10
2023-05-08T04:54:21.667Z,23.10
2023-05-08T04:56:48.828Z,23.10
2023-05-08T04:59:16.168Z,23.10
2023-05-08T05:01:43.502Z,23.20
2023-05-08T05:04:10.666Z,23.20
2023-05-08T05:06:37.830Z,23.20
2023-05-08T05:09:05.464Z,23.20
2023-05-08T05:11:32.541Z,23.30
2023-05-08T05:13:59.867Z,23.30
2023-05-08T05:16:27.577Z,23.30
2023-05-08T05:18:55.191Z,23.40
2023-05-08T05:21:22.269Z,23.40
2023-05-08T05:23:49.504Z,23.40
2023-05-08T05:26:16.665Z,23.40
2023-05-08T05:28:43.772Z,23.40
2023-05-08T05:31:11.578Z,23.40
2023-05-08T05:33:38.689Z,23.40
2023-05-08T05:36:06.131Z,23.40
2023-05-08T05:38:33.449Z,23.40
2023-05-08T05:41:00.767Z,23.50
2023-05-08T05:43:28.689Z,23.50
2023-05-08T05:45:59.039Z,23.50
2023-05-08T05:48:26.068Z,23.40
2023-05-08T05:50:53.280Z,23.20
2023-05-08T05:53:20.434Z,23.10
2023-05-08T05:55:48.109Z,23.10
2023-05-08T05:58:16.894Z,23.00
2023-05-08T06:00:44.512Z,23.00
2023-05-08T06:03:11.748Z,22.90
2023-05-08T06:05:39.362Z,22.90
2023-05-08T06:08:08.781Z,22.90
2023-05-08T06:10:36.532Z,23.00
2023-05-08T06:13:03.767Z,23.00
2023-05-08T06:15:30.945Z,23.10
2023-05-08T06:17:58.510Z,23.10
2023-05-08T06:20:26.578Z,23.20
2023-05-08T06:22:53.935Z,23.30
2023-05-08T06:25:21.098Z,23.30
2023-05-08T06:27:48.142Z,23.30
2023-05-08T06:30:15.415Z,23.30
2023-05-08T06:32:42.958Z,23.30
2023-05-08T06:35:10.625Z,23.30
2023-05-08T06:37:37.901Z,23.30
2023-05-08T06:40:14.253Z,23.30
2023-05-08T06:42:41.667Z,23.20
2023-05-08T06:45:09.810Z,23.30
2023-05-08T06:47:37.120Z,23.30
2023-05-08T06:50:04.817Z,23.30
2023-05-08T06:52:33.573Z,23.30
2023-05-08T06:55:01.358Z,23.40
2023-05-08T06:57:30.448Z,23.50
2023-05-08T06:59:57.652Z,23.60
2023-05-08T07:02:24.761Z,23.60
2023-05-08T07:04:51.895Z,23.70
2023-05-08T07:07:19.745Z,23.80
2023-05-08T07:09:49.954Z,23.80
2023-05-08T07:12:16.967Z,23.90
2023-05-08T07:14:44.093Z,23.90
2023-05-08T07:17:11.216Z,24.00
2023-05-08T07:19:39.600Z,24.00
2023-05-08T07:22:06.941Z,24.10
2023-05-08T07:24:34.194Z,24.10
2023-05-08T07:27:01.427Z,24.20
2023-05-08T07:29:28.483Z,24.20
2023-05-08T07:31:56.493Z,24.30
2023-05-08T07:34:23.657Z,24.30
2023-05-08T07:36:50.731Z,24.30
2023-05-08T07:39:18.091Z,24.30
2023-05-08T07:41:46.777Z,24.40
2023-05-08T07:44:16.167Z,24.40
2023-05-08T07:46:43.287Z,24.50
2023-05-08T07:49:10.410Z,24.50
2023-05-08T07:51:37.660Z,24.50
2023-05-08T07:54:04.845Z,24.50
2023-05-08T07:56:32.837Z,24.50
2023-05-08T07:59:00.305Z,24.50
2023-05-08T08:01:27.540Z,24.60
2023-05-08T08:03:54.667Z,24.60
2023-05-08T08:06:21.956Z,24.60
2023-05-08T08:08:49.663Z,24.70
2023-05-08T08:11:16.768Z,24.70
2023-05-08T08:13:44.095Z,24.70
2023-05-08T08:16:11.501Z,24.70
2023-05-08T08:18:40.026Z,24.70
2023-05-08T08:21:07.918Z,24.80
2023-05-08T08:23:35.329Z,24.80
2023-05-08T08:26:02.450Z,24.90
2023-05-08T08:28:29.858Z,24.90
2023-05-08T08:30:57.009Z,24.90
2023-05-08T08:33:24.680Z,24.90
2023-05-08T08:35:51.730Z,24.90
2023-05-08T08:38:19.087Z,24.90
2023-05-08T08:40:46.519Z,24.90
2023-05-08T08:43:14.327Z,25.00
2023-05-08T08:45:42.099Z,24.90
2023-05-08T08:48:12.596Z,24.90
2023-05-08T08:50:46.059Z,25.00
2023-05-08T08:53:27.733Z,25.00
2023-05-08T08:55:57.422Z,25.00
2023-05-08T08:58:39.263Z,25.10
2023-05-08T09:01:09.625Z,25.00
2023-05-08T09:03:36.778Z,25.10
2023-05-08T09:06:04.935Z,25.10
2023-05-08T09:08:32.884Z,25.10
2023-05-08T09:11:02.484Z,25.10
2023-05-08T09:13:30.399Z,25.10
2023-05-08T09:16:01.348Z,25.20
2023-05-08T09:18:28.559Z,25.20
2023-05-08T09:20:56.259Z,25.30
2023-05-08T09:23:23.470Z,25.30
2023-05-08T09:25:50.892Z,25.30
2023-05-08T09:28:25.151Z,25.40
2023-05-08T09:30:55.410Z,25.40
2023-05-08T09:33:24.306Z,25.40
2023-05-08T09:35:51.562Z,25.40
2023-05-08T09:38:39.438Z,25.40
2023-05-08T09:41:16.682Z,25.50
2023-05-08T09:43:45.191Z,25.50
2023-05-08T09:46:27.096Z,25.50
2023-05-08T09:48:59.914Z,25.50
2023-05-08T09:51:28.611Z,25.50
2023-05-08T09:53:57.940Z,25.60
2023-05-08T09:56:37.610Z,25.60
2023-05-08T09:59:21.808Z,25.70
2023-05-08T10:01:49.201Z,25.70
2023-05-08T10:04:16.398Z,25.70
2023-05-08T10:06:43.731Z,25.70
2023-05-08T10:42:03.821Z,25.90
2023-05-08T10:44:32.167Z,25.90
2023-05-08T10:47:26.688Z,25.90
2023-05-08T10:50:22.570Z,25.90
2023-05-08T10:56:42.657Z,25.90
2023-05-08T10:59:20.794Z,25.90
2023-05-08T11:01:49.571Z,26.00
2023-05-08T11:04:24.205Z,26.00
2023-05-08T11:06:54.462Z,26.00
2023-05-08T11:09:41.274Z,26.00
2023-05-08T11:12:20.797Z,26.00
2023-05-08T11:15:04.475Z,26.00
2023-05-08T11:17:31.755Z,26.10
2023-05-08T11:20:03.803Z,26.10
2023-05-08T11:22:33.211Z,26.10
2023-05-08T11:25:05.053Z,26.10
2023-05-08T11:28:03.984Z,26.00
2023-05-08T11:30:36.777Z,25.90
2023-05-08T11:33:14.905Z,25.80
2023-05-08T11:35:58.094Z,25.70
2023-05-08T11:38:38.597Z,25.60
2023-05-08T11:41:09.268Z,25.50
2023-05-08T11:43:51.146Z,25.30
2023-05-08T11:46:22.180Z,25.10
2023-05-08T11:48:49.867Z,25.00
2023-05-08T11:51:20.036Z,25.00
2023-05-08T11:53:47.597Z,24.90
2023-05-08T11:56:15.059Z,24.90
2023-05-08T11:58:43.561Z,25.00
2023-05-08T12:01:10.755Z,25.00
2023-05-08T12:03:38.327Z,25.10
2023-05-08T12:06:06.094Z,25.10
2023-05-08T12:08:39.127Z,25.30
2023-05-08T12:11:06.300Z,25.40
2023-05-08T12:13:33.510Z,25.50
2023-05-08T12:16:01.512Z,25.60
2023-05-08T12:18:30.667Z,25.70
2023-05-08T12:20:59.806Z,25.70
2023-05-08T12:23:29.650Z,25.80
2023-05-08T12:26:01.241Z,25.80
2023-05-08T12:28:29.020Z,25.80
2023-05-08T12:30:56.726Z,25.80
2023-05-08T12:33:24.856Z,25.90
2023-05-08T12:35:52.226Z,25.90
2023-05-08T12:38:19.423Z,26.00
2023-05-08T12:40:50.172Z,26.00
2023-05-08T12:43:17.348Z,26.00
2023-05-08T12:45:44.677Z,25.90
2023-05-08T12:48:18.652Z,25.90
2023-05-08T12:50:47.411Z,26.00
2023-05-08T12:53:19.518Z,26.00
2023-05-08T12:55:55.515Z,26.00
2023-05-08T12:58:28.545Z,26.10
2023-05-08T13:01:06.595Z,26.10
2023-05-08T13:03:34.443Z,26.20
2023-05-08T13:06:01.736Z,26.20
2023-05-08T13:08:35.049Z,26.20
2023-05-08T13:11:04.970Z,26.20
2023-05-08T13:13:34.348Z,26.20
2023-05-08T13:16:07.090Z,26.20
2023-05-08T13:18:36.959Z,26.10
2023-05-08T13:21:05.101Z,26.10
2023-05-08T13:23:32.314Z,26.00
2023-05-08T13:25:59.482Z,26.10
2023-05-08T13:28:26.683Z,26.10
2023-05-08T13:30:53.972Z,26.10
2023-05-08T13:33:22.207Z,26.10
2023-05-08T13:35:49.709Z,26.10
2023-05-08T13:38:16.862Z,26.00
2023-05-08T13:40:43.988Z,25.90
2023-05-08T13:43:11.168Z,25.90
2023-05-08T13:45:38.331Z,25.90
2023-05-08T13:48:05.731Z,25.90
2023-05-08T13:50:32.918Z,25.80
2023-05-08T13:53:01.292Z,25.80
2023-05-08T13:55:28.533Z,25.70
2023-05-08T13:57:57.135Z,25.80
2023-05-08T14:00:26.002Z,25.80
2023-05-08T14:02:55.175Z,25.80
2023-05-08T14:05:22.567Z,25.90
2023-05-08T14:07:49.635Z,25.80
2023-05-08T14:10:17.402Z,25.80
2023-05-08T14:12:44.724Z,25.80
2023-05-08T14:15:14.170Z,25.80
2023-05-08T14:17:42.502Z,25.80
2023-05-08T14:20:12.050Z,25.90
2023-05-08T14:22:39.744Z,25.90
2023-05-08T14:25:07.701Z,26.00
2023-05-08T14:27:34.895Z,26.00
2023-05-08T14:30:02.160Z,26.00
2023-05-08T14:32:29.647Z,26.00
2023-05-08T14:34:56.754Z,26.10
2023-05-08T14:37:23.961Z,26.10
2023-05-08T14:39:54.237Z,26.20
2023-05-08T14:42:23.417Z,26.20
2023-05-08T14:44:51.288Z,26.20
2023-05-08T14:47:18.561Z,26.20
2023-05-08T14:49:45.715Z,26.20
2023-05-08T14:52:12.835Z,26.20
2023-05-08T14:54:41.033Z,26.20
2023-05-08T14:57:08.229Z,26.10
2023-05-08T14:59:35.293Z,26.10
2023-05-08T15:02:02.619Z,26.10
2023-05-08T15:04:29.979Z,26.10
2023-05-08T15:06:57.073Z,26.10
2023-05-08T15:09:24.161Z,26.00
2023-05-08T15:11:51.302Z,26.10
2023-05-08T15:14:18.450Z,26.10
2023-05-08T15:16:45.737Z,26.10
2023-05-08T15:19:12.956Z,26.10
2023-05-08T15:21:40.047Z,26.10
2023-05-08T15:24:07.703Z,26.10
2023-05-08T15:26:34.943Z,26.10
2023-05-08T15:29:01.996Z,26.10
2023-05-08T15:31:29.140Z,26.10
2023-05-08T15:33:56.230Z,26.10
2023-05-08T15:36:23.372Z,26.10
2023-05-08T15:38:50.901Z,26.10
2023-05-08T15:41:18.028Z,26.10
2023-05-08T15:43:45.700Z,26.20
2023-05-08T15:46:12.865Z,26.20
2023-05-08T15:48:40.099Z,26.20
2023-05-08T15:51:07.367Z,26.10
2023-05-08T15:53:35.479Z,26.10
2023-05-08T15:56:02.742Z,26.10
2023-05-08T15:58:29.913Z,26.10
2023-05-08T16:00:57.828Z,26.10
2023-05-08T16:03:25.084Z,26.00
2023-05-08T16:05:52.312Z,26.00
2023-05-08T16:08:19.408Z,26.00
2023-05-08T16:10:46.734Z,26.00
2023-05-08T16:13:13.846Z,26.00
2023-05-08T16:15:41.262Z,25.90
2023-05-08T16:18:08.459Z,25.90
2023-05-08T16:20:36.367Z,25.90
2023-05-08T16:23:03.913Z,25.90
2023-05-08T16:25:31.404Z,25.80
2023-05-08T16:27:58.858Z,25.90
2023-05-08T16:30:26.009Z,25.80
2023-05-08T16:32:53.180Z,25.80
2023-05-08T16:35:20.593Z,25.80
2023-05-08T16:37:47.860Z,25.90
2023-05-08T16:40:15.137Z,25.90
2023-05-08T16:42:44.451Z,25.90
2023-05-08T16:45:12.396Z,25.90
2023-05-08T16:47:39.766Z,26.00
2023-05-08T16:50:07.547Z,26.00
2023-05-08T16:52:34.757Z,26.00
2023-05-08T16:55:02.053Z,25.90
2023-05-08T16:57:29.330Z,25.90
2023-05-08T16:59:56.564Z,25.80
2023-05-08T17:02:23.784Z,25.80
2023-05-08T17:04:51.004Z,25.70
2023-05-08T17:07:18.623Z,25.70
2023-05-08T17:09:48.484Z,25.70
2023-05-08T17:12:15.702Z,25.60
2023-05-08T17:14:42.795Z,25.60
2023-05-08T17:17:09.987Z,25.50
2023-05-08T17:19:37.143Z,25.50
2023-05-08T17:22:04.391Z,25.50
2023-05-08T17:24:32.729Z,25.40
2023-05-08T17:27:00.036Z,25.40
2023-05-08T17:29:27.333Z,25.40
2023-05-08T17:31:54.569Z,25.30
2023-05-08T17:34:22.991Z,25.30
2023-05-08T17:36:50.454Z,25.30
2023-05-08T17:39:21.143Z,25.20
2023-05-08T17:41:52.330Z,25.20
2023-05-08T17:44:19.424Z,25.20
2023-05-08T17:46:46.681Z,25.20
2023-05-08T17:49:15.872Z,25.10
2023-05-08T17:51:44.245Z,25.10
2023-05-08T17:54:11.721Z,25.10
2023-05-08T17:56:38.929Z,25.10
2023-05-08T17:59:06.330Z,25.10
2023-05-08T18:01:33.426Z,25.00
2023-05-08T18:04:00.857Z,25.00
2023-05-08T18:06:27.998Z,25.00
2023-05-08T18:08:55.121Z,25.00
2023-05-08T18:11:24.680Z,24.90
2023-05-08T18:13:53.874Z,24.90
2023-05-08T18:16:22.105Z,24.90
2023-05-08T18:18:50.249Z,24.90
2023-05-08T18:21:17.461Z,24.90
2023-05-08T18:23:44.669Z,24.80
2023-05-08T18:26:16.409Z,24.80
2023-05-08T18:28:44.554Z,24.80
2023-05-08T18:31:12.358Z,24.80
2023-05-08T18:33:39.739Z,24.80
2023-05-08T18:36:07.360Z,24.80
2023-05-08T18:38:35.325Z,24.70
2023-05-08T18:41:06.394Z,24.70
2023-05-08T18:43:33.917Z,24.70
2023-05-08T18:46:07.278Z,24.70
2023-05-08T18:48:34.418Z,24.60
2023-05-08T18:51:01.628Z,24.60
2023-05-08T18:53:30.611Z,24.60
2023-05-08T18:55:58.028Z,24.60
2023-05-08T18:58:25.202Z,24.60
2023-05-08T19:00:56.369Z,24.50
2023-05-08T19:03:24.511Z,24.50
2023-05-08T19:05:51.959Z,24.50
2023-05-08T19:08:19.135Z,24.50
2023-05-08T19:10:47.480Z,24.40
2023-05-08T19:13:14.871Z,24.40
2023-05-08T19:15:42.132Z,24.40
2023-05-08T19:18:09.347Z,24.30
2023-05-08T19:20:36.419Z,24.30
2023-05-08T19:23:03.548Z,24.30
2023-05-08T19:25:30.647Z,24.30
2023-05-08T19:27:58.839Z,24.30
2023-05-08T19:30:25.972Z,24.30
2023-05-08T19:32:53.078Z,24.20
2023-05-08T19:35:21.082Z,24.20
2023-05-08T19:37:48.224Z,24.20
2023-05-08T19:40:16.571Z,24.20
2023-05-08T19:42:45.777Z,24.20
2023-05-08T19:45:13.767Z,24.10
2023-05-08T19:47:41.024Z,24.10
2023-05-08T19:50:08.771Z,24.10
2023-05-08T19:52:36.108Z,24.10
2023-05-08T19:55:03.396Z,24.00
2023-05-08T19:57:30.564Z,24.10
2023-05-08T19:59:57.719Z,24.00
2023-05-08T20:02:24.885Z,24.00
2023-05-08T20:05:18.598Z,24.00
2023-05-08T20:07:39.213Z,24.00
2023-05-08T20:10:07.099Z,23.90
2023-05-08T20:12:34.237Z,23.90
2023-05-08T20:15:01.320Z,23.90
2023-05-08T20:17:28.573Z,23.90
2023-05-08T20:19:55.763Z,23.90
2023-05-08T20:22:22.905Z,23.90
2023-05-08T20:24:50.088Z,23.80
2023-05-08T20:27:17.229Z,23.80
2023-05-08T20:29:45.425Z,23.80
2023-05-08T20:32:14.991Z,23.80
2023-05-08T20:34:42.242Z,23.80
2023-05-08T20:37:10.072Z,23.70
2023-05-08T20:39:37.158Z,23.70
2023-05-08T20:42:04.331Z,23.70
2023-05-08T20:44:31.550Z,23.70
2023-05-08T20:46:58.735Z,23.70
2023-05-08T20:49:26.338Z,23.70
2023-05-08T20:51:53.437Z,23.70
2023-05-08T20:54:21.554Z,23.70
2023-05-08T20:56:48.684Z,23.70
2023-05-08T20:59:16.809Z,23.60
2023-05-08T21:01:43.891Z,23.60
2023-05-08T21:04:11.177Z,23.60
2023-05-08T21:06:38.302Z,23.60
2023-05-08T21:09:07.049Z,23.60
2023-05-08T21:11:34.433Z,23.60
2023-05-08T21:14:01.605Z,23.60
2023-05-08T21:16:28.773Z,23.60
2023-05-08T21:18:58.178Z,23.60
2023-05-08T21:21:25.738Z,23.50
2023-05-08T21:23:53.050Z,23.50
2023-05-08T21:26:23.537Z,23.50
2023-05-08T21:28:52.733Z,23.50
2023-05-08T21:31:20.107Z,23.60
2023-05-08T21:33:47.558Z,23.50
2023-05-08T21:36:14.740Z,23.50
2023-05-08T21:38:42.123Z,23.50
2023-05-08T21:41:09.369Z,23.50
2023-05-08T21:43:37.342Z,23.50
2023-05-08T21:46:06.100Z,23.50
2023-05-08T21:48:34.173Z,23.50
2023-05-08T21:51:01.639Z,23.50
2023-05-08T21:53:29.049Z,23.50
2023-05-08T21:55:56.195Z,23.40
2023-05-08T21:58:23.257Z,23.50
2023-05-08T22:00:50.408Z,23.40
2023-05-08T22:03:18.470Z,23.40
2023-05-08T22:05:45.610Z,23.40
2023-05-08T22:08:12.788Z,23.40
2023-05-08T22:10:40.227Z,23.40
2023-05-08T22:13:07.713Z,23.40
2023-05-08T22:15:35.194Z,23.30
2023-05-08T22:18:02.997Z,23.30
2023-05-08T22:20:30.471Z,23.30
2023-05-08T22:22:57.629Z,23.30
2023-05-08T22:25:25.777Z,23.30
2023-05-08T22:27:53.059Z,23.30
2023-05-08T22:30:20.328Z,23.30
2023-05-08T22:32:57.282Z,23.30
2023-05-08T22:35:25.748Z,23.30
2023-05-08T22:37:53.645Z,23.30
2023-05-08T22:40:22.179Z,23.30
2023-05-08T22:42:51.633Z,23.30
2023-05-08T22:45:19.391Z,23.30
2023-05-08T22:47:46.843Z,23.30
2023-05-08T22:50:14.246Z,23.30
2023-05-08T22:52:41.394Z,23.30
2023-05-08T22:55:09.041Z,23.30
2023-05-08T22:57:36.322Z,23.30
2023-05-08T23:00:03.653Z,23.30
2023-05-08T23:02:35.245Z,23.30
2023-05-08T23:05:02.868Z,23.30
2023-05-08T23:07:30.060Z,23.20
2023-05-08T23:09:57.235Z,23.20
2023-05-08T23:12:24.413Z,23.20
2023-05-08T23:14:52.348Z,23.20
2023-05-08T23:17:19.563Z,23.20
2023-05-08T23:19:46.704Z,23.20
2023-05-08T23:22:13.846Z,23.20
2023-05-08T23:24:40.970Z,23.20
2023-05-08T23:27:08.134Z,23.10
2023-05-08T23:29:35.197Z,23.10
2023-05-08T23:32:02.295Z,23.20
2023-05-08T23:34:29.400Z,23.10
2023-05-08T23:36:56.478Z,23.10
2023-05-08T23:39:23.682Z,23.10
2023-05-08T23:41:50.778Z,23.10
2023-05-08T23:44:18.104Z,23.00
2023-05-08T23:46:46.356Z,23.00
2023-05-08T23:49:13.511Z,23.00
2023-05-08T23:51:40.578Z,23.00
2023-05-08T23:54:07.758Z,23.00
2023-05-08T23:56:34.890Z,23.00
2023-05-08T23:59:02.041Z,23.00
